Time;durP1;ratioP1;P1;durP2;ratioP2;P2;SDS_P1;SDS_P2;PMS_P1;PMS_P2;Temp;Humidity;BMP_temperature;BMP_pressure;BME280_temperature;BME280_humidity;BME280_pressure;Samples;Min_cycle;Max_cycle;Signal;HPM_P1;HPM_P2
2024/04/15 00:00:13;;;;;;;8.23;2.47;;;;;;;11.76;100.00;97459.91;6714331;26;20584;-57
2024/04/15 00:03:19;;;;;;;2.43;1.97;;;;;;;11.71;100.00;97457.19;6705647;26;20283;-56
2024/04/15 00:06:21;;;;;;;3.10;2.20;;;;;;;11.77;100.00;97450.81;6704138;26;20798;-52
2024/04/15 00:09:24;;;;;;;3.67;2.10;;;;;;;11.78;100.00;97439.13;6703329;26;20233;-54
2024/04/15 00:12:27;;;;;;;3.30;2.40;;;;;;;11.84;100.00;97440.78;6706152;26;20240;-57
2024/04/15 00:15:29;;;;;;;2.63;2.07;;;;;;;11.87;100.00;97434.91;6704061;26;20699;-55
2024/04/15 00:18:32;;;;;;;2.93;2.17;;;;;;;11.78;100.00;97426.56;6702157;26;20276;-55
2024/04/15 00:21:34;;;;;;;2.57;2.30;;;;;;;11.71;100.00;97417.97;6707602;26;20248;-57
2024/04/15 00:24:37;;;;;;;2.33;2.13;;;;;;;11.68;100.00;97412.34;6728074;26;20232;-54
2024/04/15 00:27:39;;;;;;;1.90;1.80;;;;;;;11.75;100.00;97415.59;6720714;26;20233;-56
2024/04/15 00:30:46;;;;;;;2.47;2.20;;;;;;;11.81;100.00;97407.34;6706910;26;20248;-57
2024/04/15 00:33:49;;;;;;;4.37;2.37;;;;;;;12.03;100.00;97398.47;6723054;26;20284;-56
2024/04/15 00:36:51;;;;;;;2.30;1.90;;;;;;;11.97;100.00;97391.47;6726466;26;20236;-55
2024/04/15 00:39:55;;;;;;;2.00;1.90;;;;;;;11.98;100.00;97385.91;6722615;26;20237;-55
2024/04/15 00:42:57;;;;;;;2.27;2.00;;;;;;;12.07;100.00;97375.53;6715350;26;20241;-58
2024/04/15 00:46:00;;;;;;;2.27;1.83;;;;;;;11.88;100.00;97378.63;6708038;26;20266;-55
2024/04/15 00:49:03;;;;;;;2.73;2.30;;;;;;;11.80;100.00;97372.94;6739127;26;20584;-55
2024/04/15 00:52:07;;;;;;;3.40;2.30;;;;;;;11.71;100.00;97363.78;6717369;26;20288;-55
2024/04/15 00:55:10;;;;;;;2.53;1.90;;;;;;;11.70;100.00;97370.19;6718585;26;20244;-57
2024/04/15 00:58:16;;;;;;;2.80;2.10;;;;;;;11.65;100.00;97356.81;6704147;26;20344;-56
2024/04/15 01:01:19;;;;;;;2.70;2.10;;;;;;;11.62;100.00;97350.94;6682720;26;20279;-57
2024/04/15 01:04:22;;;;;;;3.77;2.40;;;;;;;11.66;100.00;97350.41;6715007;26;20571;-56
2024/04/15 01:07:25;;;;;;;2.57;2.30;;;;;;;11.66;100.00;97340.53;6710847;26;20713;-57
2024/04/15 01:10:28;;;;;;;2.50;2.30;;;;;;;11.62;100.00;97331.44;6710563;26;20337;-56
2024/04/15 01:13:40;;;;;;;3.37;2.07;;;;;;;11.61;100.00;97338.63;6710808;26;20256;-57
2024/04/15 01:16:42;;;;;;;2.40;2.10;;;;;;;11.63;100.00;97319.72;6737573;26;20301;-56
2024/04/15 01:19:45;;;;;;;3.20;1.97;;;;;;;11.69;100.00;97321.38;6708398;26;20589;-56
2024/04/15 01:22:55;;;;;;;3.20;1.90;;;;;;;11.71;100.00;97321.91;6708354;26;20239;-58
2024/04/15 01:25:58;;;;;;;3.40;2.30;;;;;;;11.94;100.00;97318.06;6712833;26;20272;-56
2024/04/15 01:29:00;;;;;;;3.90;2.30;;;;;;;11.78;100.00;97322.50;6706523;26;20237;-56
2024/04/15 01:32:03;;;;;;;3.40;2.30;;;;;;;11.80;100.00;97311.56;6706890;26;20244;-58
2024/04/15 01:35:06;;;;;;;2.43;2.23;;;;;;;11.87;100.00;97312.13;6718891;26;20604;-56
2024/04/15 01:38:08;;;;;;;2.57;2.17;;;;;;;11.94;100.00;97301.25;6707348;26;20846;-55
2024/04/15 01:41:11;;;;;;;3.47;2.20;;;;;;;11.95;100.00;97298.31;6724789;26;20333;-57
2024/04/15 01:44:13;;;;;;;2.47;2.20;;;;;;;11.81;100.00;97292.59;6722148;26;20283;-56
2024/04/15 01:47:16;;;;;;;3.97;1.93;;;;;;;11.75;100.00;97290.97;6716037;26;20240;-53
2024/04/15 01:50:20;;;;;;;2.53;2.33;;;;;;;11.71;100.00;97278.41;6712346;26;20241;-57
2024/04/15 01:53:23;;;;;;;3.47;2.33;;;;;;;11.74;100.00;97275.22;6705100;26;20237;-57
2024/04/15 01:56:26;;;;;;;3.30;2.10;;;;;;;11.94;100.00;97263.88;6713019;26;20249;-58
2024/04/15 01:59:28;;;;;;;3.20;2.10;;;;;;;11.79;100.00;97262.72;6726582;26;20236;-56
2024/04/15 02:02:31;;;;;;;3.53;2.17;;;;;;;11.78;100.00;97258.44;6710814;26;20283;-57
2024/04/15 02:05:35;;;;;;;3.43;2.13;;;;;;;11.66;100.00;97241.03;6705149;26;20610;-56
2024/04/15 02:08:37;;;;;;;2.53;2.07;;;;;;;11.64;100.00;97235.97;6728156;26;20241;-55
2024/04/15 02:11:39;;;;;;;7.27;2.63;;;;;;;11.71;100.00;97233.03;6712020;26;20279;-57
2024/04/15 02:14:43;;;;;;;3.10;2.13;;;;;;;11.69;100.00;97227.19;6705690;26;20309;-55
2024/04/15 02:17:45;;;;;;;3.63;1.97;;;;;;;11.72;100.00;97211.44;6713936;26;20311;-56
2024/04/15 02:20:48;;;;;;;2.67;2.17;;;;;;;11.78;100.00;97207.75;6699912;26;20284;-55
2024/04/15 02:23:51;;;;;;;4.57;2.37;;;;;;;11.72;100.00;97202.63;6710616;26;20316;-54
2024/04/15 02:26:54;;;;;;;2.97;2.30;;;;;;;11.67;100.00;97207.94;6711661;26;20230;-55
2024/04/15 02:29:57;;;;;;;3.23;2.00;;;;;;;11.69;100.00;97187.16;6707353;26;20244;-55
2024/04/15 02:32:59;;;;;;;2.30;2.10;;;;;;;11.71;100.00;97185.00;6706656;26;20352;-56
2024/04/15 02:36:02;;;;;;;3.03;2.40;;;;;;;11.70;100.00;97183.41;6713170;26;20244;-56
2024/04/15 02:39:04;;;;;;;3.40;2.40;;;;;;;11.65;100.00;97167.38;6711842;26;20236;-56
2024/04/15 02:42:07;;;;;;;4.73;2.20;;;;;;;11.61;100.00;97159.88;6709886;26;20287;-56
2024/04/15 02:45:11;;;;;;;2.83;2.40;;;;;;;11.65;100.00;97165.50;6704216;26;20283;-56
2024/04/15 02:48:16;;;;;;;3.37;2.17;;;;;;;11.65;100.00;97154.84;6700642;26;20284;-52
2024/04/15 02:51:19;;;;;;;2.97;2.00;;;;;;;11.65;100.00;97148.72;6712815;26;20229;-56
2024/04/15 02:54:21;;;;;;;4.07;2.10;;;;;;;11.68;100.00;97151.66;6716147;26;20282;-55
2024/04/15 02:57:24;;;;;;;2.50;2.30;;;;;;;11.66;100.00;97139.63;6719102;26;20286;-57
2024/04/15 03:00:26;;;;;;;2.63;2.07;;;;;;;11.55;100.00;97114.78;6700568;26;20295;-55
2024/04/15 03:03:29;;;;;;;2.40;2.20;;;;;;;11.58;100.00;97112.41;6720679;26;20284;-53
2024/04/15 03:06:32;;;;;;;2.47;2.27;;;;;;;11.63;100.00;97116.97;6709667;26;20344;-57
2024/04/15 03:09:34;;;;;;;2.80;2.33;;;;;;;11.48;100.00;97104.38;6684120;26;20275;-54
2024/04/15 03:12:37;;;;;;;6.27;2.30;;;;;;;11.65;100.00;97106.81;6737656;26;20236;-55
2024/04/15 03:15:39;;;;;;;2.97;2.30;;;;;;;11.66;100.00;97102.28;6698117;26;20263;-55
2024/04/15 03:18:44;;;;;;;4.47;2.33;;;;;;;11.68;100.00;97095.63;6716039;26;20627;-56
2024/04/15 03:21:48;;;;;;;2.60;2.40;;;;;;;11.68;100.00;97084.16;6711340;26;20236;-54
2024/04/15 03:24:51;;;;;;;4.07;2.57;;;;;;;11.65;100.00;97087.34;6702748;26;20271;-55
2024/04/15 03:27:53;;;;;;;2.80;2.50;;;;;;;11.68;100.00;97084.97;6727998;26;20233;-56
2024/04/15 03:30:56;;;;;;;3.37;2.67;;;;;;;11.68;100.00;97082.28;6721179;26;20729;-56
2024/04/15 03:33:58;;;;;;;2.90;2.60;;;;;;;11.79;100.00;97089.25;6709367;26;20345;-56
2024/04/15 03:37:01;;;;;;;3.47;3.17;;;;;;;11.83;100.00;97089.56;6729974;26;20279;-57
2024/04/15 03:40:07;;;;;;;2.50;2.27;;;;;;;11.81;100.00;97086.31;6732130;26;21038;-57
2024/04/15 03:43:09;;;;;;;2.93;2.40;;;;;;;11.79;100.00;97083.13;6726418;26;20287;-56
2024/04/15 03:46:12;;;;;;;3.23;2.47;;;;;;;11.79;100.00;97077.78;6714724;26;20279;-56
2024/04/15 03:49:14;;;;;;;2.00;1.90;;;;;;;11.97;100.00;97079.97;6707901;26;20672;-56
2024/04/15 03:52:17;;;;;;;4.07;2.23;;;;;;;11.82;100.00;97070.09;6704371;26;20237;-56
2024/04/15 03:55:20;;;;;;;4.03;2.20;;;;;;;11.83;100.00;97076.22;6680368;26;20241;-57
2024/04/15 03:58:22;;;;;;;3.30;2.27;;;;;;;11.80;100.00;97068.69;6741683;26;20249;-55
2024/04/15 04:01:25;;;;;;;3.70;2.40;;;;;;;11.85;100.00;97074.06;6706042;26;20241;-56
2024/04/15 04:04:30;;;;;;;4.00;2.47;;;;;;;11.99;100.00;97069.03;6713615;26;20807;-55
2024/04/15 04:07:34;;;;;;;2.90;2.60;;;;;;;11.85;100.00;97053.53;6699312;26;20233;-57
2024/04/15 04:10:36;;;;;;;3.27;2.50;;;;;;;11.90;100.00;97062.59;6710037;26;20240;-55
2024/04/15 04:13:39;;;;;;;5.03;2.10;;;;;;;11.91;100.00;97057.00;6703927;26;20291;-56
2024/04/15 04:16:43;;;;;;;2.90;2.27;;;;;;;11.86;100.00;97041.78;6728871;26;20303;-55
2024/04/15 04:19:46;;;;;;;2.37;2.17;;;;;;;11.99;100.00;97061.81;6700529;26;21093;-56
2024/04/15 04:22:48;;;;;;;2.40;2.20;;;;;;;12.03;100.00;97059.44;6687889;26;20293;-56
2024/04/15 04:25:51;;;;;;;3.17;2.47;;;;;;;12.03;100.00;97057.56;6714939;26;20237;-56
2024/04/15 04:28:54;;;;;;;2.90;2.57;;;;;;;12.13;100.00;97054.09;6703495;26;20815;-55
2024/04/15 04:31:56;;;;;;;4.47;2.50;;;;;;;12.12;100.00;97061.31;6702315;26;20249;-54
2024/04/15 04:34:59;;;;;;;3.90;2.30;;;;;;;12.16;100.00;97056.22;6717842;26;20594;-57
2024/04/15 04:38:01;;;;;;;4.83;2.33;;;;;;;12.19;100.00;97061.03;6709969;26;20248;-55
2024/04/15 04:41:04;;;;;;;3.30;2.23;;;;;;;12.15;100.00;97057.28;6717831;26;20342;-54
2024/04/15 04:44:06;;;;;;;2.60;2.40;;;;;;;12.11;100.00;97051.66;6702515;26;20285;-57
2024/04/15 04:47:09;;;;;;;3.20;2.23;;;;;;;12.28;100.00;97062.09;6725515;26;20240;-55
2024/04/15 04:50:11;;;;;;;4.13;2.93;;;;;;;12.29;100.00;97053.00;6729996;26;20283;-57
2024/04/15 04:53:14;;;;;;;4.07;2.77;;;;;;;12.37;100.00;97057.03;6706913;26;20237;-56
2024/04/15 04:56:17;;;;;;;4.27;2.13;;;;;;;12.30;100.00;97046.59;6705403;26;20237;-57
2024/04/15 04:59:19;;;;;;;2.73;2.53;;;;;;;12.42;100.00;97048.22;6711133;26;20328;-55
2024/04/15 05:02:24;;;;;;;2.70;2.50;;;;;;;12.52;100.00;97054.34;6721430;26;20792;-55
2024/04/15 05:05:27;;;;;;;3.63;2.47;;;;;;;12.56;100.00;97046.56;6705726;26;20337;-57
2024/04/15 05:08:30;;;;;;;2.53;2.17;;;;;;;12.68;100.00;97052.44;6702877;26;20279;-57
2024/04/15 05:11:32;;;;;;;4.63;2.57;;;;;;;12.70;100.00;97054.81;6722952;26;20249;-54
2024/04/15 05:14:35;;;;;;;5.63;2.67;;;;;;;12.75;100.00;97052.13;6713041;26;20341;-55
2024/04/15 05:17:37;;;;;;;2.53;2.33;;;;;;;12.95;100.00;97062.78;6746845;26;20343;-56
2024/04/15 05:20:40;;;;;;;2.77;2.57;;;;;;;13.12;100.00;97057.13;6704584;26;20296;-54
2024/04/15 05:23:43;;;;;;;2.37;2.17;;;;;;;13.05;100.00;97062.78;6726755;26;20327;-57
2024/04/15 05:26:45;;;;;;;2.70;2.20;;;;;;;13.37;100.00;97066.94;6726574;26;20236;-56
2024/04/15 05:29:48;;;;;;;3.67;2.50;;;;;;;13.33;100.00;97068.56;6717997;26;20233;-56
2024/04/15 05:32:50;;;;;;;4.43;2.43;;;;;;;13.57;100.00;97056.16;6714597;26;20232;-55
2024/04/15 05:35:53;;;;;;;2.30;2.20;;;;;;;13.53;100.00;97059.66;6705594;26;20345;-56
2024/04/15 05:38:55;;;;;;;2.53;2.33;;;;;;;13.55;100.00;97052.97;6732106;26;20287;-55
2024/04/15 05:41:58;;;;;;;6.40;2.67;;;;;;;13.67;100.00;97048.06;6713830;26;20236;-54
2024/04/15 05:45:01;;;;;;;2.73;2.53;;;;;;;13.92;100.00;97049.75;6716578;26;20246;-57
2024/04/15 05:48:04;;;;;;;2.67;2.40;;;;;;;14.11;100.00;97043.75;6705741;26;20291;-56
2024/04/15 05:51:07;;;;;;;3.47;2.70;;;;;;;14.27;100.00;97052.47;6732169;26;20296;-54
2024/04/15 05:54:09;;;;;;;5.37;2.57;;;;;;;14.19;100.00;97048.50;6723280;26;20249;-55
2024/04/15 05:57:12;;;;;;;3.60;2.40;;;;;;;14.20;100.00;97042.06;6704884;26;20237;-55
2024/04/15 06:00:15;;;;;;;2.50;2.30;;;;;;;14.27;100.00;97047.91;6703298;26;20287;-57
2024/04/15 06:03:17;;;;;;;3.20;2.30;;;;;;;14.44;100.00;97036.78;6704185;26;20315;-57
2024/04/15 06:06:20;;;;;;;3.20;2.57;;;;;;;14.48;100.00;97028.97;6724783;26;20304;-54
2024/04/15 06:09:22;;;;;;;2.57;2.27;;;;;;;14.64;100.00;97020.53;6710632;26;20244;-56
2024/04/15 06:12:28;;;;;;;3.87;2.40;;;;;;;14.84;100.00;97021.41;6711792;26;20344;-56
2024/04/15 06:15:36;;;;;;;3.67;2.40;;;;;;;14.80;100.00;97006.97;6738373;26;20235;-56
2024/04/15 06:18:40;;;;;;;2.70;2.23;;;;;;;14.86;100.00;97006.59;6700629;26;20276;-55
2024/04/15 06:21:43;;;;;;;2.67;2.47;;;;;;;15.01;100.00;96999.47;6706984;26;20237;-55
2024/04/15 06:24:46;;;;;;;5.13;2.50;;;;;;;15.09;100.00;97005.00;6716486;26;20249;-55
2024/04/15 06:27:48;;;;;;;2.73;2.53;;;;;;;15.25;100.00;97002.91;6705213;26;20229;-57
2024/04/15 06:30:51;;;;;;;3.27;2.40;;;;;;;15.41;100.00;96995.47;6672165;26;20229;-55
2024/04/15 06:33:53;;;;;;;4.37;2.17;;;;;;;15.44;100.00;96994.88;6741806;26;21019;-56
2024/04/15 06:36:57;;;;;;;2.33;2.13;;;;;;;15.58;100.00;97001.13;6710603;26;20247;-54
2024/04/15 06:39:59;;;;;;;3.10;2.60;;;;;;;15.78;100.00;96991.22;6708358;26;20896;-53
2024/04/15 06:43:02;;;;;;;2.97;2.60;;;;;;;15.80;100.00;96989.81;6704474;26;20287;-55
2024/04/15 06:46:08;;;;;;;2.40;2.20;;;;;;;15.76;100.00;96990.69;6709956;26;20233;-56
2024/04/15 06:49:11;;;;;;;2.37;2.10;;;;;;;15.84;100.00;96985.47;6725530;26;20250;-54
2024/04/15 06:52:13;;;;;;;2.80;2.50;;;;;;;15.88;100.00;96975.75;6722772;26;20239;-56
2024/04/15 06:55:16;;;;;;;3.27;2.43;;;;;;;15.90;100.00;96975.44;6681208;26;20233;-56
2024/04/15 06:58:19;;;;;;;3.17;2.50;;;;;;;15.94;100.00;96971.06;6697802;26;20237;-54
2024/04/15 07:01:21;;;;;;;2.60;2.40;;;;;;;15.98;100.00;96972.88;6719762;26;20946;-57
2024/04/15 07:04:24;;;;;;;2.73;2.50;;;;;;;16.06;100.00;96976.81;6706999;26;20280;-54
2024/04/15 07:07:27;;;;;;;2.50;2.30;;;;;;;16.14;100.00;96968.06;6707123;26;20276;-57
2024/04/15 07:10:31;;;;;;;3.00;2.70;;;;;;;16.18;100.00;96962.88;6706353;26;20346;-54
2024/04/15 07:13:34;;;;;;;2.60;2.40;;;;;;;16.36;100.00;96980.06;6725539;26;20241;-56
2024/04/15 07:16:36;;;;;;;4.20;2.60;;;;;;;16.51;100.00;96979.78;6720984;26;20239;-57
2024/04/15 07:19:39;;;;;;;3.00;2.27;;;;;;;16.66;100.00;96978.69;6710378;26;20231;-56
2024/04/15 07:22:44;;;;;;;3.70;2.60;;;;;;;16.81;100.00;96988.41;6734045;26;20268;-57
2024/04/15 07:25:46;;;;;;;2.77;2.37;;;;;;;16.95;100.00;96976.53;6711774;26;20304;-57
2024/04/15 07:28:52;;;;;;;2.33;2.13;;;;;;;17.31;100.00;96991.94;6709650;26;20244;-58
2024/04/15 07:31:54;;;;;;;2.43;2.20;;;;;;;17.56;95.56;96979.81;6704698;26;20775;-57
2024/04/15 07:34:57;;;;;;;2.10;1.80;;;;;;;17.78;89.43;96990.66;6704820;26;20253;-56
2024/04/15 07:37:59;;;;;;;3.90;2.20;;;;;;;18.03;90.56;96993.84;6687316;26;20237;-57
2024/04/15 07:41:02;;;;;;;3.73;2.30;;;;;;;18.15;96.81;97014.84;6687616;26;20344;-57
2024/04/15 07:44:04;;;;;;;3.03;2.00;;;;;;;18.15;88.26;97004.06;6705533;26;20318;-58
2024/04/15 07:47:07;;;;;;;1.30;1.10;;;;;;;19.59;49.59;97024.22;6718840;26;20239;-57
2024/04/15 07:50:10;;;;;;;2.40;1.20;;;;;;;19.59;56.93;97014.22;6713383;26;20732;-57
2024/04/15 07:53:12;;;;;;;4.00;1.70;;;;;;;19.41;66.69;97027.97;6716391;26;20284;-54
2024/04/15 07:56:15;;;;;;;2.10;1.13;;;;;;;19.74;50.35;97015.66;6718372;26;20237;-57
2024/04/15 07:59:17;;;;;;;1.80;1.40;;;;;;;20.14;47.21;97026.31;6703611;26;20236;-57
2024/04/15 08:02:20;;;;;;;3.70;1.60;;;;;;;20.05;59.71;97025.56;6715162;26;20233;-55
2024/04/15 08:05:22;;;;;;;1.57;1.33;;;;;;;20.01;56.54;97030.00;6720966;26;20248;-55
2024/04/15 08:08:25;;;;;;;1.93;1.77;;;;;;;19.69;63.68;97023.94;6713529;26;20279;-55
2024/04/15 08:11:27;;;;;;;3.40;1.60;;;;;;;20.25;47.87;97037.63;6722584;26;20315;-55
2024/04/15 08:14:30;;;;;;;1.53;1.37;;;;;;;20.63;47.33;97045.84;6705267;26;20286;-55
2024/04/15 08:17:32;;;;;;;2.13;1.53;;;;;;;20.70;47.40;97051.56;6726235;26;20278;-57
2024/04/15 08:20:35;;;;;;;2.50;1.70;;;;;;;20.83;45.72;97042.44;6725582;26;20237;-55
2024/04/15 08:23:37;;;;;;;3.10;1.60;;;;;;;20.70;46.41;97053.47;6710039;26;20287;-57
2024/04/15 08:26:40;;;;;;;2.20;1.83;;;;;;;20.61;46.12;97040.75;6703071;26;20287;-55
2024/04/15 08:29:43;;;;;;;3.77;1.50;;;;;;;20.86;44.77;97070.78;6722684;26;20312;-57
2024/04/15 08:32:46;;;;;;;4.20;1.73;;;;;;;21.02;43.93;97079.16;6715355;26;20253;-56
2024/04/15 08:35:48;;;;;;;5.47;1.80;;;;;;;20.93;43.05;97065.66;6709304;26;20327;-56
2024/04/15 08:38:51;;;;;;;5.17;1.83;;;;;;;20.88;44.68;97084.78;6710173;26;20347;-55
2024/04/15 08:42:10;;;;;;;5.77;1.70;;;;;;;20.78;46.15;97082.41;6703455;26;20229;-55
2024/04/15 08:45:18;;;;;;;2.87;1.80;;;;;;;20.54;45.70;97072.94;6712264;26;20280;-54
2024/04/15 08:48:24;;;;;;;1.80;1.70;;;;;;;20.48;47.54;97078.81;6711517;26;20747;-54
2024/04/15 08:51:27;;;;;;;4.77;1.90;;;;;;;20.46;48.98;97092.66;6708469;26;20237;-56
2024/04/15 08:54:29;;;;;;;3.27;2.33;;;;;;;20.54;49.93;97093.78;6703302;26;20252;-55
2024/04/15 08:57:33;;;;;;;2.33;2.10;;;;;;;20.60;51.81;97106.84;6714193;26;20638;-57
2024/04/15 09:00:35;;;;;;;2.90;2.33;;;;;;;20.51;52.92;97107.97;6713284;26;20233;-57
2024/04/15 09:03:38;;;;;;;5.83;2.33;;;;;;;20.35;53.30;97092.19;6707391;26;20233;-56
2024/04/15 09:06:40;;;;;;;3.37;2.30;;;;;;;20.28;53.20;97097.25;6706397;26;20792;-55
2024/04/15 09:09:43;;;;;;;6.03;2.80;;;;;;;20.11;53.88;97097.28;6720867;26;20229;-57
2024/04/15 09:12:47;;;;;;;6.73;2.43;;;;;;;20.20;55.11;97110.81;6708338;26;20297;-56
2024/04/15 09:15:51;;;;;;;3.37;3.03;;;;;;;19.81;54.88;97117.91;6706964;26;20237;-55
2024/04/15 09:18:54;;;;;;;3.93;2.57;;;;;;;19.78;56.90;97116.63;6706531;26;20849;-55
2024/04/15 09:22:02;;;;;;;2.83;2.53;;;;;;;19.99;54.44;97118.72;6759628;26;20244;-57
2024/04/15 09:25:06;;;;;;;3.63;2.53;;;;;;;19.95;56.24;97118.59;6720511;26;20345;-56
2024/04/15 09:28:08;;;;;;;8.50;3.20;;;;;;;20.08;56.63;97117.63;6707615;26;20313;-57
2024/04/15 09:31:11;;;;;;;4.80;2.80;;;;;;;19.93;55.15;97099.16;6705846;26;20233;-55
2024/04/15 09:34:15;;;;;;;5.70;2.73;;;;;;;20.01;56.19;97106.50;6710672;26;20248;-57
2024/04/15 09:37:34;;;;;;;4.53;2.70;;;;;;;20.07;56.39;97116.03;6706177;26;20225;-56
2024/04/15 09:40:41;;;;;;;6.43;3.03;;;;;;;20.00;56.04;97114.91;6713350;26;20300;-57
2024/04/15 09:43:45;;;;;;;3.27;2.50;;;;;;;20.01;55.76;97114.59;6707021;26;20646;-55
2024/04/15 09:46:49;;;;;;;6.23;2.70;;;;;;;20.00;55.15;97121.13;6730337;26;20233;-56
2024/04/15 09:49:51;;;;;;;2.53;2.30;;;;;;;19.95;56.77;97123.16;6724700;26;20792;-55
2024/04/15 09:52:59;;;;;;;4.87;2.50;;;;;;;19.95;57.67;97124.00;6708257;26;20703;-55
2024/04/15 09:56:07;;;;;;;4.87;2.63;;;;;;;19.92;58.61;97124.59;6712001;26;20283;-57
2024/04/15 09:59:14;;;;;;;4.87;2.30;;;;;;;19.92;56.33;97135.44;6726136;26;20237;-56
2024/04/15 10:02:27;;;;;;;4.07;2.50;;;;;;;19.84;60.57;97136.19;6725870;26;20783;-56
2024/04/15 10:05:32;;;;;;;3.03;2.30;;;;;;;19.98;58.80;97119.84;6709147;26;20341;-55
2024/04/15 10:08:35;;;;;;;2.67;2.20;;;;;;;19.82;58.23;97104.09;6679296;26;20597;-55
2024/04/15 10:11:42;;;;;;;2.83;2.20;;;;;;;19.75;60.31;97097.53;6712737;26;20271;-54
2024/04/15 10:14:45;;;;;;;6.33;3.30;;;;;;;19.24;59.94;97096.25;6659119;26;20771;-55
2024/04/15 10:18:18;;;;;;;3.07;2.73;;;;;;;19.36;59.36;97084.84;6664529;26;20769;-58
2024/04/15 10:21:21;;;;;;;3.17;2.37;;;;;;;19.32;61.60;97069.28;6664311;26;20321;-54
2024/04/15 10:24:25;;;;;;;2.50;2.30;;;;;;;19.38;60.99;97052.94;6638241;26;20234;-57
2024/04/15 10:27:28;;;;;;;3.37;2.50;;;;;;;19.43;59.56;97047.38;6666524;26;20230;-56
2024/04/15 10:30:32;;;;;;;2.80;2.50;;;;;;;19.53;58.97;97047.09;6669398;26;20283;-54
2024/04/15 10:33:49;;;;;;;3.70;2.43;;;;;;;19.46;60.97;97047.56;6668964;26;20242;-56
2024/04/15 10:36:55;;;;;;;3.20;2.90;;;;;;;19.23;61.46;97051.47;6649247;26;20324;-57
2024/04/15 10:40:03;;;;;;;3.77;3.00;;;;;;;19.32;60.13;97052.28;6680962;26;20234;-55
2024/04/15 10:43:06;;;;;;;6.57;2.80;;;;;;;19.24;60.51;97053.84;6665670;26;20580;-56
2024/04/15 10:46:12;;;;;;;2.97;2.50;;;;;;;19.30;60.87;97052.59;6670253;26;20230;-56
2024/04/15 10:49:16;;;;;;;3.43;3.00;;;;;;;19.36;62.51;97052.44;6681017;26;20245;-57
2024/04/15 10:52:20;;;;;;;3.20;2.73;;;;;;;19.52;59.47;97050.91;6659201;26;20301;-57
2024/04/15 10:55:22;;;;;;;3.80;3.10;;;;;;;19.66;62.05;97043.50;6664340;26;20338;-55
2024/04/15 10:58:25;;;;;;;4.73;3.47;;;;;;;19.47;60.01;97032.16;6665019;26;20295;-56
2024/04/15 11:01:28;;;;;;;4.30;2.80;;;;;;;19.65;60.49;97027.56;6663341;26;20238;-54
2024/04/15 11:04:32;;;;;;;4.53;2.70;;;;;;;19.76;61.10;97028.88;6658488;26;20740;-55
2024/04/15 11:07:37;;;;;;;4.17;3.03;;;;;;;19.88;58.99;97028.25;6674536;26;20234;-56
2024/04/15 11:10:40;;;;;;;4.13;3.37;;;;;;;20.00;59.59;97028.38;6665636;26;20343;-56
2024/04/15 11:13:43;;;;;;;5.50;2.87;;;;;;;19.94;59.06;97027.75;6694663;26;20241;-56
2024/04/15 11:16:46;;;;;;;5.10;2.83;;;;;;;19.86;59.18;97014.25;6716143;26;20225;-56
2024/04/15 11:20:05;;;;;;;5.23;3.83;;;;;;;20.21;57.33;97039.38;6727055;26;20241;-57
2024/04/15 11:23:08;;;;;;;8.53;3.87;;;;;;;20.00;58.04;97021.09;6716584;26;20328;-57
2024/04/15 11:26:14;;;;;;;5.67;4.00;;;;;;;20.24;57.60;97027.91;6670228;26;20237;-56
2024/04/15 11:29:18;;;;;;;4.80;3.23;;;;;;;20.41;62.41;97022.47;6711881;26;20283;-57
2024/04/15 11:32:20;;;;;;;4.90;4.03;;;;;;;20.30;57.47;97023.94;6733702;26;20241;-54
2024/04/15 11:35:25;;;;;;;3.83;2.80;;;;;;;20.05;60.38;97018.22;6722861;26;20237;-53
2024/04/15 11:38:27;;;;;;;5.20;3.20;;;;;;;20.05;56.89;97009.31;6708554;26;20314;-55
2024/04/15 11:41:30;;;;;;;5.07;2.80;;;;;;;19.81;56.79;97020.63;6705803;26;20299;-56
2024/04/15 11:44:35;;;;;;;3.13;2.53;;;;;;;19.74;56.88;97006.75;6720473;26;20253;-56
2024/04/15 11:47:38;;;;;;;3.93;2.50;;;;;;;19.75;57.78;97003.75;6721803;26;20283;-57
2024/04/15 11:50:42;;;;;;;2.70;2.13;;;;;;;19.51;56.73;97000.69;6688683;26;20271;-54
2024/04/15 11:53:47;;;;;;;3.50;1.70;;;;;;;19.59;56.81;96992.59;6706864;26;20236;-55
2024/04/15 11:56:50;;;;;;;2.43;1.53;;;;;;;19.65;55.01;96993.25;6713651;26;20795;-56
2024/04/15 11:59:57;;;;;;;2.17;1.33;;;;;;;19.72;56.39;96995.50;6703420;26;20418;-55
2024/04/15 12:03:00;;;;;;;3.27;1.57;;;;;;;19.50;58.36;96986.38;6714821;26;20292;-58
2024/04/15 12:06:05;;;;;;;2.57;1.47;;;;;;;19.57;58.15;96994.81;6720451;26;20240;-56
2024/04/15 12:09:08;;;;;;;1.90;1.33;;;;;;;19.45;55.61;96999.22;6710196;26;20233;-57
2024/04/15 12:12:10;;;;;;;2.60;1.20;;;;;;;19.38;56.49;97001.63;6714903;26;20245;-57
2024/04/15 12:15:13;;;;;;;1.20;1.10;;;;;;;19.22;53.98;96987.78;6717671;26;20237;-57
2024/04/15 12:18:16;;;;;;;1.50;0.90;;;;;;;18.98;54.89;96970.06;6712078;26;20237;-56
2024/04/15 12:21:19;;;;;;;1.80;1.20;;;;;;;19.00;53.69;96978.66;6703194;26;20236;-57
2024/04/15 12:24:22;;;;;;;1.33;1.20;;;;;;;19.00;54.77;96973.25;6703166;26;20241;-57
2024/04/15 12:27:25;;;;;;;1.27;1.07;;;;;;;19.11;55.24;96981.84;6709030;26;20229;-56
2024/04/15 12:30:31;;;;;;;3.73;1.20;;;;;;;19.11;55.76;96973.75;6716885;26;20236;-56
2024/04/15 12:33:33;;;;;;;2.60;1.20;;;;;;;18.97;55.76;96967.69;6713470;26;20233;-55
2024/04/15 12:36:36;;;;;;;1.37;0.90;;;;;;;19.00;57.00;96972.44;6720232;26;20239;-55
2024/04/15 12:39:40;;;;;;;3.93;1.20;;;;;;;19.13;56.37;96974.25;6725732;26;20295;-53
2024/04/15 12:42:42;;;;;;;1.33;1.20;;;;;;;18.88;56.48;96973.06;6718266;26;20309;-55
2024/04/15 12:45:45;;;;;;;1.43;1.17;;;;;;;18.61;57.03;96975.94;6718092;26;20229;-57
2024/04/15 12:48:47;;;;;;;2.27;1.40;;;;;;;18.44;62.85;96973.97;6720961;26;20309;-56
2024/04/15 12:51:50;;;;;;;1.33;1.20;;;;;;;18.10;61.76;96953.78;6731188;26;20274;-55
2024/04/15 12:54:53;;;;;;;1.33;1.00;;;;;;;18.13;62.42;96955.88;6724205;26;20698;-56
2024/04/15 12:57:55;;;;;;;2.07;1.40;;;;;;;17.99;61.97;96944.38;6706117;26;20729;-57
2024/04/15 13:00:58;;;;;;;1.43;1.30;;;;;;;17.89;62.53;96925.75;6713557;26;20232;-56
2024/04/15 13:04:03;;;;;;;1.47;1.37;;;;;;;17.89;63.25;96921.16;6738460;26;20233;-57
2024/04/15 13:07:07;;;;;;;1.73;1.30;;;;;;;17.69;64.25;96927.81;6763087;26;20652;-56
2024/04/15 13:10:09;;;;;;;2.20;1.47;;;;;;;17.61;68.23;96919.66;6715677;26;20296;-57
2024/04/15 13:13:12;;;;;;;2.30;1.70;;;;;;;17.51;66.39;96921.47;6714039;26;20294;-54
2024/04/15 13:16:15;;;;;;;1.87;1.50;;;;;;;17.36;67.13;96918.34;6741005;26;20722;-57
2024/04/15 13:19:17;;;;;;;1.60;1.50;;;;;;;17.42;66.35;96906.34;6723411;26;20245;-54
2024/04/15 13:22:20;;;;;;;1.87;1.63;;;;;;;17.30;67.81;96917.66;6713989;26;20313;-55
2024/04/15 13:25:23;;;;;;;1.90;1.70;;;;;;;17.27;67.48;96918.25;6714140;26;20236;-55
2024/04/15 13:28:25;;;;;;;1.97;1.50;;;;;;;17.12;68.51;96930.16;6719580;26;20792;-55
2024/04/15 13:31:28;;;;;;;1.50;1.40;;;;;;;16.92;69.00;96919.84;6711784;26;20225;-56
2024/04/15 13:34:31;;;;;;;1.30;1.20;;;;;;;16.87;70.80;96928.00;6718252;26;20784;-57
2024/04/15 13:37:34;;;;;;;1.27;1.17;;;;;;;16.85;68.19;96920.25;6711163;26;20763;-55
2024/04/15 13:40:36;;;;;;;1.40;1.30;;;;;;;16.64;69.72;96911.75;6711584;26;20241;-57
2024/04/15 13:43:39;;;;;;;1.33;1.03;;;;;;;16.48;70.06;96899.72;6706096;26;20236;-55
2024/04/15 13:46:41;;;;;;;3.43;1.50;;;;;;;16.30;73.25;96892.53;6712510;26;20673;-56
2024/04/15 13:49:44;;;;;;;1.47;1.37;;;;;;;16.14;75.30;96935.81;6715455;26;20228;-56
2024/04/15 13:52:46;;;;;;;2.97;1.17;;;;;;;15.90;76.69;96975.44;6706452;26;20284;-57
2024/04/15 13:55:49;;;;;;;3.40;1.53;;;;;;;15.56;81.39;96964.91;6718343;26;20232;-56
2024/04/15 13:58:52;;;;;;;12.40;2.93;;;;;;;15.32;92.19;96946.19;6727446;26;20767;-55
2024/04/15 14:01:56;;;;;;;7.87;2.80;;;;;;;14.95;100.00;96953.94;6719942;26;20244;-56
2024/04/15 14:04:59;;;;;;;4.13;2.30;;;;;;;14.95;100.00;96919.06;6702280;26;20233;-55
2024/04/15 14:08:02;;;;;;;5.07;2.70;;;;;;;14.51;100.00;96940.78;6707427;26;20334;-56
2024/04/15 14:11:04;;;;;;;7.67;2.77;;;;;;;14.54;100.00;96920.66;6718466;26;20244;-53
2024/04/15 14:14:07;;;;;;;7.50;2.77;;;;;;;14.13;100.00;96911.13;6721256;26;20699;-54
2024/04/15 14:17:12;;;;;;;5.40;2.93;;;;;;;14.03;100.00;96875.63;6717229;26;20236;-55